sensor_id;sensor_type;location;lat;lon;timestamp;P1;durP1;ratioP1;P2;durP2;ratioP2
17854;SDS011;9053;53.358;6.382;2023-02-28T00:00:44;6.23;;;2.03;;
17854;SDS011;9053;53.358;6.382;2023-02-28T00:03:16;6.20;;;2.90;;
17854;SDS011;9053;53.358;6.382;2023-02-28T00:05:46;5.30;;;2.60;;
17854;SDS011;9053;53.358;6.382;2023-02-28T00:08:16;5.60;;;2.70;;
17854;SDS011;9053;53.358;6.382;2023-02-28T00:10:46;3.67;;;2.20;;
17854;SDS011;9053;53.358;6.382;2023-02-28T00:13:15;4.40;;;2.30;;
17854;SDS011;9053;53.358;6.382;2023-02-28T00:15:45;4.73;;;2.03;;
17854;SDS011;9053;53.358;6.382;2023-02-28T00:18:18;3.37;;;2.10;;
17854;SDS011;9053;53.358;6.382;2023-02-28T00:20:48;3.30;;;2.00;;
17854;SDS011;9053;53.358;6.382;2023-02-28T00:23:18;4.87;;;3.00;;
17854;SDS011;9053;53.358;6.382;2023-02-28T00:25:47;4.63;;;2.80;;
17854;SDS011;9053;53.358;6.382;2023-02-28T00:28:19;4.53;;;2.97;;
17854;SDS011;9053;53.358;6.382;2023-02-28T00:30:49;4.20;;;2.03;;
17854;SDS011;9053;53.358;6.382;2023-02-28T00:33:22;2.03;;;1.73;;
17854;SDS011;9053;53.358;6.382;2023-02-28T00:35:52;3.80;;;1.73;;
17854;SDS011;9053;53.358;6.382;2023-02-28T00:38:30;3.03;;;2.17;;
17854;SDS011;9053;53.358;6.382;2023-02-28T00:41:00;3.33;;;2.00;;
17854;SDS011;9053;53.358;6.382;2023-02-28T00:43:32;2.43;;;1.33;;
17854;SDS011;9053;53.358;6.382;2023-02-28T00:46:03;3.30;;;1.90;;
17854;SDS011;9053;53.358;6.382;2023-02-28T00:48:36;4.03;;;1.60;;
17854;SDS011;9053;53.358;6.382;2023-02-28T00:51:06;4.10;;;1.90;;
17854;SDS011;9053;53.358;6.382;2023-02-28T00:53:36;3.57;;;1.60;;
17854;SDS011;9053;53.358;6.382;2023-02-28T00:56:06;2.80;;;1.63;;
17854;SDS011;9053;53.358;6.382;2023-02-28T00:58:36;2.97;;;1.60;;
17854;SDS011;9053;53.358;6.382;2023-02-28T01:01:06;5.17;;;1.77;;
17854;SDS011;9053;53.358;6.382;2023-02-28T01:03:38;2.80;;;1.40;;
17854;SDS011;9053;53.358;6.382;2023-02-28T01:06:08;3.23;;;1.50;;
17854;SDS011;9053;53.358;6.382;2023-02-28T01:08:38;5.00;;;1.60;;
17854;SDS011;9053;53.358;6.382;2023-02-28T01:11:08;3.57;;;1.50;;
17854;SDS011;9053;53.358;6.382;2023-02-28T01:13:39;5.10;;;1.67;;
17854;SDS011;9053;53.358;6.382;2023-02-28T01:16:10;3.17;;;1.60;;
17854;SDS011;9053;53.358;6.382;2023-02-28T01:18:43;4.60;;;1.50;;
17854;SDS011;9053;53.358;6.382;2023-02-28T01:21:14;4.20;;;1.23;;
17854;SDS011;9053;53.358;6.382;2023-02-28T01:23:45;1.70;;;1.20;;
17854;SDS011;9053;53.358;6.382;2023-02-28T01:26:16;3.37;;;1.90;;
17854;SDS011;9053;53.358;6.382;2023-02-28T01:28:48;2.20;;;1.03;;
17854;SDS011;9053;53.358;6.382;2023-02-28T01:31:18;2.57;;;1.20;;
17854;SDS011;9053;53.358;6.382;2023-02-28T01:33:52;3.33;;;1.27;;
17854;SDS011;9053;53.358;6.382;2023-02-28T01:36:23;4.13;;;1.33;;
17854;SDS011;9053;53.358;6.382;2023-02-28T01:38:53;2.87;;;1.60;;
17854;SDS011;9053;53.358;6.382;2023-02-28T01:41:24;2.67;;;1.30;;
17854;SDS011;9053;53.358;6.382;2023-02-28T01:43:58;7.00;;;1.60;;
17854;SDS011;9053;53.358;6.382;2023-02-28T01:46:35;2.47;;;1.20;;
17854;SDS011;9053;53.358;6.382;2023-02-28T01:49:09;5.27;;;1.73;;
17854;SDS011;9053;53.358;6.382;2023-02-28T01:51:43;4.30;;;1.93;;
17854;SDS011;9053;53.358;6.382;2023-02-28T01:54:18;3.40;;;1.53;;
17854;SDS011;9053;53.358;6.382;2023-02-28T01:56:52;2.63;;;1.20;;
17854;SDS011;9053;53.358;6.382;2023-02-28T01:59:26;3.50;;;1.40;;
17854;SDS011;9053;53.358;6.382;2023-02-28T02:02:01;3.17;;;1.53;;
17854;SDS011;9053;53.358;6.382;2023-02-28T02:04:35;4.73;;;1.40;;
17854;SDS011;9053;53.358;6.382;2023-02-28T02:07:09;2.43;;;1.40;;
17854;SDS011;9053;53.358;6.382;2023-02-28T02:09:40;3.90;;;1.30;;
17854;SDS011;9053;53.358;6.382;2023-02-28T02:12:11;3.40;;;1.60;;
17854;SDS011;9053;53.358;6.382;2023-02-28T02:14:58;2.73;;;1.40;;
17854;SDS011;9053;53.358;6.382;2023-02-28T02:17:36;2.07;;;1.37;;
17854;SDS011;9053;53.358;6.382;2023-02-28T02:29:39;1.63;;;1.30;;
17854;SDS011;9053;53.358;6.382;2023-02-28T02:32:49;2.07;;;1.27;;
17854;SDS011;9053;53.358;6.382;2023-02-28T02:35:38;4.23;;;1.73;;
17854;SDS011;9053;53.358;6.382;2023-02-28T02:38:14;3.87;;;1.70;;
17854;SDS011;9053;53.358;6.382;2023-02-28T02:40:50;2.77;;;1.43;;
17854;SDS011;9053;53.358;6.382;2023-02-28T02:43:29;5.60;;;1.47;;
17854;SDS011;9053;53.358;6.382;2023-02-28T02:46:04;3.13;;;1.47;;
17854;SDS011;9053;53.358;6.382;2023-02-28T02:48:38;3.17;;;1.40;;
17854;SDS011;9053;53.358;6.382;2023-02-28T02:51:14;2.50;;;1.30;;
17854;SDS011;9053;53.358;6.382;2023-02-28T02:53:46;3.20;;;1.53;;
17854;SDS011;9053;53.358;6.382;2023-02-28T02:56:23;1.53;;;1.40;;
17854;SDS011;9053;53.358;6.382;2023-02-28T02:58:57;3.17;;;1.47;;
17854;SDS011;9053;53.358;6.382;2023-02-28T03:01:31;2.63;;;1.23;;
17854;SDS011;9053;53.358;6.382;2023-02-28T03:04:04;4.37;;;1.83;;
17854;SDS011;9053;53.358;6.382;2023-02-28T03:06:39;2.67;;;1.33;;
17854;SDS011;9053;53.358;6.382;2023-02-28T03:09:09;3.20;;;1.57;;
17854;SDS011;9053;53.358;6.382;2023-02-28T03:11:39;1.57;;;1.40;;
17854;SDS011;9053;53.358;6.382;2023-02-28T03:14:23;2.33;;;1.60;;
17854;SDS011;9053;53.358;6.382;2023-02-28T03:17:03;3.37;;;1.50;;
17854;SDS011;9053;53.358;6.382;2023-02-28T03:19:47;3.77;;;2.70;;
17854;SDS011;9053;53.358;6.382;2023-02-28T03:22:30;4.77;;;1.60;;
17854;SDS011;9053;53.358;6.382;2023-02-28T03:25:12;2.57;;;1.60;;
17854;SDS011;9053;53.358;6.382;2023-02-28T03:27:47;2.73;;;1.47;;
17854;SDS011;9053;53.358;6.382;2023-02-28T03:30:24;3.50;;;1.50;;
17854;SDS011;9053;53.358;6.382;2023-02-28T03:32:59;2.27;;;1.10;;
17854;SDS011;9053;53.358;6.382;2023-02-28T03:35:34;4.20;;;1.40;;
17854;SDS011;9053;53.358;6.382;2023-02-28T03:38:11;3.53;;;1.77;;
17854;SDS011;9053;53.358;6.382;2023-02-28T03:40:46;2.70;;;1.60;;
17854;SDS011;9053;53.358;6.382;2023-02-28T03:43:20;5.30;;;2.07;;
17854;SDS011;9053;53.358;6.382;2023-02-28T03:45:53;2.70;;;1.50;;
17854;SDS011;9053;53.358;6.382;2023-02-28T03:48:26;2.80;;;1.30;;
17854;SDS011;9053;53.358;6.382;2023-02-28T03:51:01;3.03;;;1.30;;
17854;SDS011;9053;53.358;6.382;2023-02-28T03:53:35;3.53;;;1.40;;
17854;SDS011;9053;53.358;6.382;2023-02-28T03:56:11;2.10;;;1.50;;
17854;SDS011;9053;53.358;6.382;2023-02-28T03:58:47;3.97;;;1.60;;
17854;SDS011;9053;53.358;6.382;2023-02-28T04:01:23;4.10;;;1.50;;
17854;SDS011;9053;53.358;6.382;2023-02-28T04:03:58;7.07;;;1.83;;
17854;SDS011;9053;53.358;6.382;2023-02-28T04:06:30;5.53;;;1.33;;
17854;SDS011;9053;53.358;6.382;2023-02-28T04:09:04;3.90;;;1.37;;
17854;SDS011;9053;53.358;6.382;2023-02-28T04:11:35;5.17;;;1.60;;
17854;SDS011;9053;53.358;6.382;2023-02-28T04:14:07;3.77;;;1.40;;
17854;SDS011;9053;53.358;6.382;2023-02-28T04:16:38;5.50;;;1.77;;
17854;SDS011;9053;53.358;6.382;2023-02-28T04:19:10;3.40;;;1.47;;
17854;SDS011;9053;53.358;6.382;2023-02-28T04:21:41;5.37;;;1.60;;
17854;SDS011;9053;53.358;6.382;2023-02-28T04:24:17;4.53;;;1.93;;
17854;SDS011;9053;53.358;6.382;2023-02-28T04:26:49;3.10;;;1.10;;
17854;SDS011;9053;53.358;6.382;2023-02-28T04:29:20;2.33;;;1.13;;
17854;SDS011;9053;53.358;6.382;2023-02-28T04:31:51;2.67;;;1.20;;
17854;SDS011;9053;53.358;6.382;2023-02-28T04:34:24;3.40;;;1.27;;
17854;SDS011;9053;53.358;6.382;2023-02-28T04:36:55;3.30;;;1.20;;
17854;SDS011;9053;53.358;6.382;2023-02-28T04:39:45;4.10;;;1.33;;
17854;SDS011;9053;53.358;6.382;2023-02-28T04:42:14;1.40;;;1.30;;
17854;SDS011;9053;53.358;6.382;2023-02-28T04:44:44;2.50;;;1.03;;
17854;SDS011;9053;53.358;6.382;2023-02-28T04:47:14;2.63;;;1.20;;
17854;SDS011;9053;53.358;6.382;2023-02-28T04:49:44;2.83;;;1.33;;
17854;SDS011;9053;53.358;6.382;2023-02-28T04:52:14;3.40;;;1.70;;
17854;SDS011;9053;53.358;6.382;2023-02-28T04:54:47;1.40;;;1.07;;
17854;SDS011;9053;53.358;6.382;2023-02-28T04:57:16;3.00;;;1.40;;
17854;SDS011;9053;53.358;6.382;2023-02-28T04:59:46;5.53;;;1.57;;
17854;SDS011;9053;53.358;6.382;2023-02-28T05:02:16;4.73;;;1.93;;
17854;SDS011;9053;53.358;6.382;2023-02-28T05:04:47;2.87;;;1.70;;
17854;SDS011;9053;53.358;6.382;2023-02-28T05:07:17;3.60;;;2.00;;
17854;SDS011;9053;53.358;6.382;2023-02-28T05:09:50;3.03;;;1.47;;
17854;SDS011;9053;53.358;6.382;2023-02-28T05:12:19;3.23;;;1.77;;
17854;SDS011;9053;53.358;6.382;2023-02-28T05:14:49;2.70;;;1.40;;
17854;SDS011;9053;53.358;6.382;2023-02-28T05:17:19;2.60;;;1.40;;
17854;SDS011;9053;53.358;6.382;2023-02-28T05:19:49;1.73;;;1.33;;
17854;SDS011;9053;53.358;6.382;2023-02-28T05:22:22;3.43;;;1.50;;
17854;SDS011;9053;53.358;6.382;2023-02-28T05:24:54;1.80;;;1.30;;
17854;SDS011;9053;53.358;6.382;2023-02-28T05:27:24;3.70;;;2.00;;
17854;SDS011;9053;53.358;6.382;2023-02-28T05:29:55;6.73;;;4.57;;
17854;SDS011;9053;53.358;6.382;2023-02-28T05:32:25;5.80;;;4.40;;
17854;SDS011;9053;53.358;6.382;2023-02-28T05:34:55;7.83;;;5.17;;
17854;SDS011;9053;53.358;6.382;2023-02-28T05:37:25;6.47;;;5.30;;
17854;SDS011;9053;53.358;6.382;2023-02-28T05:39:57;6.67;;;5.00;;
17854;SDS011;9053;53.358;6.382;2023-02-28T05:42:27;7.53;;;5.50;;
17854;SDS011;9053;53.358;6.382;2023-02-28T05:44:57;6.80;;;5.10;;
17854;SDS011;9053;53.358;6.382;2023-02-28T05:47:27;7.17;;;5.47;;
17854;SDS011;9053;53.358;6.382;2023-02-28T05:49:56;6.37;;;5.43;;
17854;SDS011;9053;53.358;6.382;2023-02-28T05:52:26;5.83;;;5.20;;
17854;SDS011;9053;53.358;6.382;2023-02-28T05:54:59;7.93;;;5.53;;
17854;SDS011;9053;53.358;6.382;2023-02-28T05:57:29;6.73;;;5.40;;
17854;SDS011;9053;53.358;6.382;2023-02-28T05:59:59;5.90;;;5.30;;
17854;SDS011;9053;53.358;6.382;2023-02-28T06:02:29;7.03;;;5.23;;
17854;SDS011;9053;53.358;6.382;2023-02-28T06:04:59;6.23;;;5.43;;
17854;SDS011;9053;53.358;6.382;2023-02-28T06:07:29;5.77;;;4.50;;
17854;SDS011;9053;53.358;6.382;2023-02-28T06:10:02;5.37;;;4.70;;
17854;SDS011;9053;53.358;6.382;2023-02-28T06:12:32;5.33;;;4.50;;
17854;SDS011;9053;53.358;6.382;2023-02-28T06:15:02;5.70;;;3.87;;
17854;SDS011;9053;53.358;6.382;2023-02-28T06:17:32;4.47;;;3.93;;
17854;SDS011;9053;53.358;6.382;2023-02-28T06:20:02;4.60;;;3.53;;
17854;SDS011;9053;53.358;6.382;2023-02-28T06:22:33;5.30;;;3.80;;
17854;SDS011;9053;53.358;6.382;2023-02-28T06:25:05;4.63;;;3.93;;
17854;SDS011;9053;53.358;6.382;2023-02-28T06:27:36;6.00;;;4.03;;
17854;SDS011;9053;53.358;6.382;2023-02-28T06:30:07;5.20;;;4.30;;
17854;SDS011;9053;53.358;6.382;2023-02-28T06:32:37;5.20;;;4.20;;
17854;SDS011;9053;53.358;6.382;2023-02-28T06:35:07;6.37;;;4.73;;
17854;SDS011;9053;53.358;6.382;2023-02-28T06:37:37;4.73;;;4.00;;
17854;SDS011;9053;53.358;6.382;2023-02-28T06:40:11;6.10;;;4.57;;
17854;SDS011;9053;53.358;6.382;2023-02-28T06:42:42;6.37;;;4.20;;
17854;SDS011;9053;53.358;6.382;2023-02-28T06:45:12;5.83;;;4.73;;
17854;SDS011;9053;53.358;6.382;2023-02-28T06:47:42;6.53;;;5.17;;
17854;SDS011;9053;53.358;6.382;2023-02-28T06:50:12;7.27;;;5.13;;
17854;SDS011;9053;53.358;6.382;2023-02-28T06:52:46;6.87;;;5.10;;
17854;SDS011;9053;53.358;6.382;2023-02-28T06:55:23;6.80;;;5.00;;
17854;SDS011;9053;53.358;6.382;2023-02-28T06:57:55;5.70;;;4.90;;
17854;SDS011;9053;53.358;6.382;2023-02-28T07:00:25;6.47;;;5.27;;
17854;SDS011;9053;53.358;6.382;2023-02-28T07:02:55;5.87;;;5.00;;
17854;SDS011;9053;53.358;6.382;2023-02-28T07:05:25;6.60;;;4.90;;
17854;SDS011;9053;53.358;6.382;2023-02-28T07:07:55;6.47;;;5.43;;
17854;SDS011;9053;53.358;6.382;2023-02-28T07:10:27;6.67;;;5.23;;
17854;SDS011;9053;53.358;6.382;2023-02-28T07:12:57;7.17;;;5.33;;
17854;SDS011;9053;53.358;6.382;2023-02-28T07:15:31;6.13;;;5.50;;
17854;SDS011;9053;53.358;6.382;2023-02-28T07:18:04;8.17;;;6.37;;
17854;SDS011;9053;53.358;6.382;2023-02-28T07:20:34;7.17;;;6.10;;
17854;SDS011;9053;53.358;6.382;2023-02-28T07:23:04;6.10;;;4.90;;
17854;SDS011;9053;53.358;6.382;2023-02-28T07:25:37;6.70;;;5.00;;
17854;SDS011;9053;53.358;6.382;2023-02-28T07:28:06;6.80;;;5.47;;
17854;SDS011;9053;53.358;6.382;2023-02-28T07:30:36;7.97;;;5.27;;
17854;SDS011;9053;53.358;6.382;2023-02-28T07:33:06;5.70;;;5.03;;
17854;SDS011;9053;53.358;6.382;2023-02-28T07:35:36;6.90;;;5.93;;
17854;SDS011;9053;53.358;6.382;2023-02-28T07:38:06;7.00;;;5.57;;
17854;SDS011;9053;53.358;6.382;2023-02-28T07:40:39;6.47;;;5.10;;
17854;SDS011;9053;53.358;6.382;2023-02-28T07:43:09;8.17;;;5.80;;
17854;SDS011;9053;53.358;6.382;2023-02-28T07:45:39;9.00;;;6.50;;
17854;SDS011;9053;53.358;6.382;2023-02-28T07:48:09;8.23;;;6.67;;
17854;SDS011;9053;53.358;6.382;2023-02-28T07:50:39;7.63;;;6.13;;
17854;SDS011;9053;53.358;6.382;2023-02-28T07:53:09;9.23;;;7.00;;
17854;SDS011;9053;53.358;6.382;2023-02-28T07:55:41;8.87;;;6.40;;
17854;SDS011;9053;53.358;6.382;2023-02-28T07:58:11;8.17;;;6.87;;
17854;SDS011;9053;53.358;6.382;2023-02-28T08:00:41;8.80;;;6.20;;
17854;SDS011;9053;53.358;6.382;2023-02-28T08:03:11;7.27;;;5.97;;
17854;SDS011;9053;53.358;6.382;2023-02-28T08:05:41;7.93;;;6.17;;
17854;SDS011;9053;53.358;6.382;2023-02-28T08:08:11;10.13;;;7.07;;
17854;SDS011;9053;53.358;6.382;2023-02-28T08:10:44;7.60;;;6.07;;
17854;SDS011;9053;53.358;6.382;2023-02-28T08:13:14;7.87;;;6.27;;
17854;SDS011;9053;53.358;6.382;2023-02-28T08:15:44;9.43;;;6.53;;
17854;SDS011;9053;53.358;6.382;2023-02-28T08:18:14;8.83;;;6.00;;
17854;SDS011;9053;53.358;6.382;2023-02-28T08:20:44;11.20;;;7.47;;
17854;SDS011;9053;53.358;6.382;2023-02-28T08:23:14;9.63;;;6.60;;
17854;SDS011;9053;53.358;6.382;2023-02-28T08:25:52;9.70;;;6.97;;
17854;SDS011;9053;53.358;6.382;2023-02-28T08:28:23;8.50;;;6.40;;
17854;SDS011;9053;53.358;6.382;2023-02-28T08:30:53;8.73;;;6.97;;
17854;SDS011;9053;53.358;6.382;2023-02-28T08:33:23;8.30;;;6.30;;
17854;SDS011;9053;53.358;6.382;2023-02-28T08:35:55;7.53;;;5.90;;
17854;SDS011;9053;53.358;6.382;2023-02-28T08:38:25;9.77;;;6.90;;
17854;SDS011;9053;53.358;6.382;2023-02-28T08:41:02;9.37;;;7.20;;
17854;SDS011;9053;53.358;6.382;2023-02-28T08:43:35;8.40;;;6.43;;
17854;SDS011;9053;53.358;6.382;2023-02-28T08:46:06;10.57;;;7.77;;
17854;SDS011;9053;53.358;6.382;2023-02-28T08:48:36;9.47;;;7.73;;
17854;SDS011;9053;53.358;6.382;2023-02-28T08:51:07;10.30;;;6.87;;
17854;SDS011;9053;53.358;6.382;2023-02-28T08:53:39;11.47;;;8.13;;
17854;SDS011;9053;53.358;6.382;2023-02-28T08:56:13;9.73;;;7.97;;
17854;SDS011;9053;53.358;6.382;2023-02-28T08:58:43;9.37;;;7.60;;
17854;SDS011;9053;53.358;6.382;2023-02-28T09:01:15;10.80;;;7.60;;
17854;SDS011;9053;53.358;6.382;2023-02-28T09:03:47;9.63;;;7.10;;
17854;SDS011;9053;53.358;6.382;2023-02-28T09:06:19;11.80;;;8.67;;
17854;SDS011;9053;53.358;6.382;2023-02-28T09:08:50;11.90;;;7.67;;
17854;SDS011;9053;53.358;6.382;2023-02-28T09:11:24;10.77;;;7.40;;
17854;SDS011;9053;53.358;6.382;2023-02-28T09:13:54;9.03;;;7.30;;
17854;SDS011;9053;53.358;6.382;2023-02-28T09:16:25;9.23;;;7.60;;
17854;SDS011;9053;53.358;6.382;2023-02-28T09:18:55;11.97;;;7.83;;
17854;SDS011;9053;53.358;6.382;2023-02-28T09:21:26;9.37;;;7.33;;
17854;SDS011;9053;53.358;6.382;2023-02-28T09:23:56;11.13;;;7.63;;
17854;SDS011;9053;53.358;6.382;2023-02-28T09:26:29;11.00;;;8.40;;
17854;SDS011;9053;53.358;6.382;2023-02-28T09:29:12;11.00;;;7.70;;
17854;SDS011;9053;53.358;6.382;2023-02-28T09:31:44;10.70;;;7.63;;
17854;SDS011;9053;53.358;6.382;2023-02-28T09:34:13;10.87;;;7.80;;
17854;SDS011;9053;53.358;6.382;2023-02-28T09:36:44;10.47;;;7.93;;
17854;SDS011;9053;53.358;6.382;2023-02-28T09:39:14;8.30;;;6.87;;
17854;SDS011;9053;53.358;6.382;2023-02-28T09:41:47;9.30;;;7.00;;
17854;SDS011;9053;53.358;6.382;2023-02-28T09:44:22;9.47;;;7.20;;
17854;SDS011;9053;53.358;6.382;2023-02-28T09:46:57;9.73;;;6.70;;
17854;SDS011;9053;53.358;6.382;2023-02-28T09:49:33;8.83;;;6.57;;
17854;SDS011;9053;53.358;6.382;2023-02-28T09:52:09;8.57;;;6.47;;
17854;SDS011;9053;53.358;6.382;2023-02-28T09:54:41;7.90;;;6.23;;
17854;SDS011;9053;53.358;6.382;2023-02-28T09:57:17;8.13;;;7.07;;
17854;SDS011;9053;53.358;6.382;2023-02-28T09:59:54;9.83;;;6.57;;
17854;SDS011;9053;53.358;6.382;2023-02-28T10:05:30;9.37;;;6.50;;
17854;SDS011;9053;53.358;6.382;2023-02-28T10:08:11;9.57;;;7.07;;
17854;SDS011;9053;53.358;6.382;2023-02-28T10:10:44;8.57;;;6.17;;
17854;SDS011;9053;53.358;6.382;2023-02-28T10:13:21;10.33;;;6.87;;
17854;SDS011;9053;53.358;6.382;2023-02-28T10:15:56;9.20;;;6.60;;
17854;SDS011;9053;53.358;6.382;2023-02-28T10:18:38;7.80;;;5.73;;
17854;SDS011;9053;53.358;6.382;2023-02-28T10:21:16;7.93;;;5.93;;
17854;SDS011;9053;53.358;6.382;2023-02-28T10:23:50;9.13;;;6.50;;
17854;SDS011;9053;53.358;6.382;2023-02-28T10:26:28;7.33;;;5.60;;
17854;SDS011;9053;53.358;6.382;2023-02-28T10:29:04;9.00;;;6.03;;
17854;SDS011;9053;53.358;6.382;2023-02-28T10:31:34;8.23;;;5.80;;
17854;SDS011;9053;53.358;6.382;2023-02-28T10:34:04;5.87;;;5.27;;
17854;SDS011;9053;53.358;6.382;2023-02-28T10:36:34;8.30;;;5.63;;
17854;SDS011;9053;53.358;6.382;2023-02-28T10:42:03;10.67;;;7.27;;
17854;SDS011;9053;53.358;6.382;2023-02-28T10:44:35;8.67;;;6.10;;
17854;SDS011;9053;53.358;6.382;2023-02-28T10:47:08;7.80;;;6.27;;
17854;SDS011;9053;53.358;6.382;2023-02-28T10:49:46;8.53;;;6.03;;
17854;SDS011;9053;53.358;6.382;2023-02-28T10:52:32;6.87;;;5.17;;
17854;SDS011;9053;53.358;6.382;2023-02-28T10:55:18;7.53;;;5.40;;
17854;SDS011;9053;53.358;6.382;2023-02-28T10:57:51;6.87;;;5.20;;
17854;SDS011;9053;53.358;6.382;2023-02-28T11:00:25;6.97;;;5.40;;
17854;SDS011;9053;53.358;6.382;2023-02-28T11:03:01;11.17;;;10.07;;
17854;SDS011;9053;53.358;6.382;2023-02-28T11:05:32;7.93;;;6.10;;
17854;SDS011;9053;53.358;6.382;2023-02-28T11:08:05;6.00;;;4.90;;
17854;SDS011;9053;53.358;6.382;2023-02-28T11:10:44;6.20;;;5.27;;
17854;SDS011;9053;53.358;6.382;2023-02-28T11:13:16;6.50;;;4.87;;
17854;SDS011;9053;53.358;6.382;2023-02-28T11:15:53;6.90;;;5.03;;
17854;SDS011;9053;53.358;6.382;2023-02-28T11:18:26;6.90;;;6.20;;
17854;SDS011;9053;53.358;6.382;2023-02-28T11:20:59;6.43;;;4.90;;
17854;SDS011;9053;53.358;6.382;2023-02-28T11:23:31;7.53;;;5.27;;
17854;SDS011;9053;53.358;6.382;2023-02-28T11:26:04;5.60;;;5.03;;
17854;SDS011;9053;53.358;6.382;2023-02-28T11:28:36;7.07;;;5.00;;
17854;SDS011;9053;53.358;6.382;2023-02-28T11:31:19;6.03;;;4.60;;
17854;SDS011;9053;53.358;6.382;2023-02-28T11:33:50;6.83;;;5.13;;
17854;SDS011;9053;53.358;6.382;2023-02-28T11:36:23;7.67;;;4.80;;
17854;SDS011;9053;53.358;6.382;2023-02-28T11:38:55;6.67;;;4.83;;
17854;SDS011;9053;53.358;6.382;2023-02-28T11:41:38;7.73;;;5.07;;
17854;SDS011;9053;53.358;6.382;2023-02-28T11:44:23;6.33;;;4.53;;
17854;SDS011;9053;53.358;6.382;2023-02-28T11:47:05;5.93;;;4.53;;
17854;SDS011;9053;53.358;6.382;2023-02-28T11:49:43;5.30;;;4.30;;
17854;SDS011;9053;53.358;6.382;2023-02-28T11:52:28;8.10;;;4.63;;
17854;SDS011;9053;53.358;6.382;2023-02-28T11:55:14;5.57;;;4.20;;
17854;SDS011;9053;53.358;6.382;2023-02-28T11:58:01;6.87;;;4.10;;
17854;SDS011;9053;53.358;6.382;2023-02-28T12:03:42;6.90;;;4.27;;
17854;SDS011;9053;53.358;6.382;2023-02-28T12:06:21;6.10;;;3.93;;
17854;SDS011;9053;53.358;6.382;2023-02-28T12:09:00;5.80;;;4.00;;
17854;SDS011;9053;53.358;6.382;2023-02-28T12:11:39;5.70;;;3.87;;
17854;SDS011;9053;53.358;6.382;2023-02-28T12:14:19;5.30;;;4.50;;
17854;SDS011;9053;53.358;6.382;2023-02-28T12:16:59;7.17;;;4.53;;
17854;SDS011;9053;53.358;6.382;2023-02-28T12:19:45;5.33;;;4.43;;
17854;SDS011;9053;53.358;6.382;2023-02-28T12:22:27;5.30;;;3.77;;
17854;SDS011;9053;53.358;6.382;2023-02-28T12:27:58;6.50;;;4.50;;
17854;SDS011;9053;53.358;6.382;2023-02-28T12:30:30;7.57;;;5.03;;
17854;SDS011;9053;53.358;6.382;2023-02-28T12:33:03;4.77;;;3.53;;
17854;SDS011;9053;53.358;6.382;2023-02-28T12:35:41;6.43;;;4.03;;
17854;SDS011;9053;53.358;6.382;2023-02-28T12:38:17;5.70;;;4.03;;
17854;SDS011;9053;53.358;6.382;2023-02-28T12:40:51;5.70;;;3.77;;
17854;SDS011;9053;53.358;6.382;2023-02-28T12:43:25;8.27;;;4.20;;
17854;SDS011;9053;53.358;6.382;2023-02-28T12:46:00;6.30;;;4.67;;
17854;SDS011;9053;53.358;6.382;2023-02-28T12:48:37;5.13;;;4.30;;
17854;SDS011;9053;53.358;6.382;2023-02-28T12:51:15;6.67;;;5.17;;
17854;SDS011;9053;53.358;6.382;2023-02-28T12:53:50;6.93;;;5.27;;
17854;SDS011;9053;53.358;6.382;2023-02-28T12:56:32;6.27;;;4.80;;
17854;SDS011;9053;53.358;6.382;2023-02-28T12:59:10;6.00;;;4.60;;
17854;SDS011;9053;53.358;6.382;2023-02-28T13:04:58;7.20;;;4.80;;
17854;SDS011;9053;53.358;6.382;2023-02-28T13:10:59;7.40;;;5.57;;
17854;SDS011;9053;53.358;6.382;2023-02-28T13:13:38;5.73;;;5.00;;
17854;SDS011;9053;53.358;6.382;2023-02-28T13:16:14;7.40;;;5.60;;
17854;SDS011;9053;53.358;6.382;2023-02-28T13:18:45;5.77;;;4.40;;
17854;SDS011;9053;53.358;6.382;2023-02-28T13:21:22;6.70;;;5.03;;
17854;SDS011;9053;53.358;6.382;2023-02-28T13:24:00;5.67;;;5.03;;
17854;SDS011;9053;53.358;6.382;2023-02-28T13:29:58;5.97;;;4.47;;
17854;SDS011;9053;53.358;6.382;2023-02-28T13:32:33;5.60;;;4.70;;
17854;SDS011;9053;53.358;6.382;2023-02-28T13:40:26;8.70;;;6.73;;
17854;SDS011;9053;53.358;6.382;2023-02-28T13:41:53;7.70;;;5.20;;
17854;SDS011;9053;53.358;6.382;2023-02-28T13:44:23;8.67;;;6.30;;
17854;SDS011;9053;53.358;6.382;2023-02-28T13:52:53;6.27;;;4.73;;
17854;SDS011;9053;53.358;6.382;2023-02-28T13:55:42;5.97;;;5.17;;
17854;SDS011;9053;53.358;6.382;2023-02-28T13:58:20;7.37;;;6.50;;
17854;SDS011;9053;53.358;6.382;2023-02-28T14:01:15;8.17;;;6.77;;
17854;SDS011;9053;53.358;6.382;2023-02-28T14:07:24;7.27;;;5.50;;
17854;SDS011;9053;53.358;6.382;2023-02-28T14:10:02;7.77;;;5.87;;
17854;SDS011;9053;53.358;6.382;2023-02-28T14:15:55;8.97;;;5.97;;
17854;SDS011;9053;53.358;6.382;2023-02-28T14:18:28;8.37;;;6.43;;
17854;SDS011;9053;53.358;6.382;2023-02-28T14:21:09;7.97;;;6.70;;
17854;SDS011;9053;53.358;6.382;2023-02-28T14:23:46;9.33;;;6.80;;
17854;SDS011;9053;53.358;6.382;2023-02-28T14:26:30;8.70;;;6.90;;
17854;SDS011;9053;53.358;6.382;2023-02-28T14:29:19;8.50;;;6.77;;
17854;SDS011;9053;53.358;6.382;2023-02-28T14:32:01;9.47;;;7.27;;
17854;SDS011;9053;53.358;6.382;2023-02-28T14:34:37;10.37;;;7.50;;
17854;SDS011;9053;53.358;6.382;2023-02-28T14:37:15;9.90;;;7.30;;
17854;SDS011;9053;53.358;6.382;2023-02-28T14:39:52;10.00;;;7.23;;
17854;SDS011;9053;53.358;6.382;2023-02-28T14:42:30;10.83;;;7.00;;
17854;SDS011;9053;53.358;6.382;2023-02-28T14:45:02;10.80;;;7.07;;
17854;SDS011;9053;53.358;6.382;2023-02-28T14:47:33;9.40;;;7.73;;
17854;SDS011;9053;53.358;6.382;2023-02-28T14:55:36;10.27;;;7.40;;
17854;SDS011;9053;53.358;6.382;2023-02-28T14:58:17;11.77;;;7.90;;
17854;SDS011;9053;53.358;6.382;2023-02-28T15:00:55;9.30;;;7.27;;
17854;SDS011;9053;53.358;6.382;2023-02-28T15:03:30;11.10;;;7.90;;
17854;SDS011;9053;53.358;6.382;2023-02-28T15:06:01;9.77;;;7.13;;
17854;SDS011;9053;53.358;6.382;2023-02-28T15:08:33;12.03;;;8.30;;
17854;SDS011;9053;53.358;6.382;2023-02-28T15:11:20;8.97;;;7.03;;
17854;SDS011;9053;53.358;6.382;2023-02-28T15:13:53;10.67;;;7.70;;
17854;SDS011;9053;53.358;6.382;2023-02-28T15:16:24;10.93;;;7.77;;
17854;SDS011;9053;53.358;6.382;2023-02-28T15:18:59;9.70;;;8.00;;
17854;SDS011;9053;53.358;6.382;2023-02-28T15:21:33;9.83;;;7.83;;
17854;SDS011;9053;53.358;6.382;2023-02-28T15:24:06;9.67;;;7.73;;
17854;SDS011;9053;53.358;6.382;2023-02-28T15:26:43;10.80;;;7.80;;
17854;SDS011;9053;53.358;6.382;2023-02-28T15:29:20;10.77;;;8.10;;
17854;SDS011;9053;53.358;6.382;2023-02-28T15:31:54;12.80;;;8.10;;
17854;SDS011;9053;53.358;6.382;2023-02-28T15:34:33;12.27;;;8.20;;
17854;SDS011;9053;53.358;6.382;2023-02-28T15:39:57;13.13;;;7.57;;
17854;SDS011;9053;53.358;6.382;2023-02-28T15:42:36;11.20;;;7.80;;
17854;SDS011;9053;53.358;6.382;2023-02-28T15:45:25;10.83;;;7.20;;
17854;SDS011;9053;53.358;6.382;2023-02-28T15:47:56;11.20;;;7.77;;
17854;SDS011;9053;53.358;6.382;2023-02-28T15:50:39;11.50;;;7.03;;
17854;SDS011;9053;53.358;6.382;2023-02-28T15:53:13;9.40;;;7.47;;
17854;SDS011;9053;53.358;6.382;2023-02-28T15:55:57;8.63;;;6.83;;
17854;SDS011;9053;53.358;6.382;2023-02-28T15:58:33;11.63;;;7.47;;
17854;SDS011;9053;53.358;6.382;2023-02-28T16:01:07;10.83;;;7.20;;
17854;SDS011;9053;53.358;6.382;2023-02-28T16:03:50;11.53;;;6.83;;
17854;SDS011;9053;53.358;6.382;2023-02-28T16:06:32;11.60;;;7.10;;
17854;SDS011;9053;53.358;6.382;2023-02-28T16:09:09;10.80;;;7.53;;
17854;SDS011;9053;53.358;6.382;2023-02-28T16:11:42;9.83;;;6.67;;
17854;SDS011;9053;53.358;6.382;2023-02-28T16:14:18;10.07;;;8.13;;
17854;SDS011;9053;53.358;6.382;2023-02-28T16:16:50;11.27;;;7.90;;
17854;SDS011;9053;53.358;6.382;2023-02-28T16:19:22;10.70;;;7.53;;
17854;SDS011;9053;53.358;6.382;2023-02-28T16:21:52;11.07;;;7.43;;
17854;SDS011;9053;53.358;6.382;2023-02-28T16:24:22;9.67;;;7.47;;
17854;SDS011;9053;53.358;6.382;2023-02-28T16:26:53;11.07;;;7.50;;
17854;SDS011;9053;53.358;6.382;2023-02-28T16:29:28;10.17;;;7.50;;
17854;SDS011;9053;53.358;6.382;2023-02-28T16:32:00;11.80;;;7.57;;
17854;SDS011;9053;53.358;6.382;2023-02-28T16:34:33;9.10;;;6.50;;
17854;SDS011;9053;53.358;6.382;2023-02-28T16:37:04;9.43;;;6.70;;